createdAt,value
2018-09-11T00:00:14.031Z,21.30
2018-09-11T00:02:42.223Z,21.30
2018-09-11T00:05:10.407Z,21.30
2018-09-11T00:07:38.899Z,21.30
2018-09-11T00:10:07.190Z,21.30
2018-09-11T00:12:35.503Z,21.40
2018-09-11T00:15:03.674Z,21.30
2018-09-11T00:17:32.033Z,21.30
2018-09-11T00:20:00.312Z,21.30
2018-09-11T00:22:28.540Z,21.30
2018-09-11T00:24:56.776Z,21.30
2018-09-11T00:27:24.981Z,21.20
2018-09-11T00:29:53.168Z,21.10
2018-09-11T00:32:21.625Z,21.20
2018-09-11T00:34:49.858Z,21.00
2018-09-11T00:37:18.075Z,21.10
2018-09-11T00:39:46.265Z,21.10
2018-09-11T00:42:14.512Z,21.00
2018-09-11T00:44:42.851Z,21.00
2018-09-11T00:47:11.111Z,20.90
2018-09-11T00:49:39.621Z,20.90
2018-09-11T00:52:07.824Z,20.90
2018-09-11T00:54:36.105Z,20.90
2018-09-11T00:57:04.449Z,21.00
2018-09-11T00:59:33.036Z,21.00
2018-09-11T01:02:01.348Z,21.00
2018-09-11T01:04:29.591Z,21.00
2018-09-11T01:06:57.840Z,21.00
2018-09-11T01:09:26.112Z,20.90
2018-09-11T01:11:54.354Z,20.90
2018-09-11T01:14:22.643Z,20.90
2018-09-11T01:16:51.001Z,20.90
2018-09-11T01:19:19.292Z,20.90
2018-09-11T01:21:47.798Z,20.90
2018-09-11T01:24:16.143Z,21.00
2018-09-11T01:26:44.428Z,21.00
2018-09-11T01:29:12.833Z,21.00
2018-09-11T01:31:41.158Z,21.00
2018-09-11T01:34:09.424Z,21.00
2018-09-11T01:36:37.899Z,21.00
2018-09-11T01:39:08.718Z,21.00
2018-09-11T01:41:37.157Z,21.00
2018-09-11T01:44:05.401Z,21.00
2018-09-11T01:46:33.720Z,21.10
2018-09-11T01:49:01.965Z,21.10
2018-09-11T01:51:30.362Z,21.10
2018-09-11T01:53:58.646Z,21.10
2018-09-11T01:56:27.084Z,21.10
2018-09-11T01:58:55.332Z,21.10
2018-09-11T02:01:23.669Z,21.10
2018-09-11T02:03:52.036Z,21.00
2018-09-11T02:06:20.436Z,21.10
2018-09-11T02:08:48.713Z,21.10
2018-09-11T02:11:17.018Z,21.10
2018-09-11T02:13:45.244Z,21.10
2018-09-11T02:16:13.502Z,21.10
2018-09-11T02:18:41.746Z,21.10
2018-09-11T02:21:10.030Z,21.20
2018-09-11T02:23:38.386Z,21.10
2018-09-11T02:26:06.812Z,21.20
2018-09-11T02:28:35.090Z,21.20
2018-09-11T02:31:03.445Z,21.20
2018-09-11T02:33:31.677Z,21.20
2018-09-11T02:35:59.967Z,21.20
2018-09-11T02:38:28.269Z,21.20
2018-09-11T02:40:56.509Z,21.20
2018-09-11T02:43:24.841Z,21.20
2018-09-11T02:45:53.263Z,21.20
2018-09-11T02:48:21.595Z,21.20
2018-09-11T02:50:50.150Z,21.20
2018-09-11T02:53:18.341Z,21.20
2018-09-11T02:55:46.619Z,21.20
2018-09-11T02:58:15.141Z,21.10
2018-09-11T03:00:43.418Z,21.10
2018-09-11T03:03:11.953Z,21.10
2018-09-11T03:05:40.372Z,21.00
2018-09-11T03:08:08.652Z,21.00
2018-09-11T03:10:36.973Z,21.00
2018-09-11T03:13:05.315Z,21.00
2018-09-11T03:15:33.798Z,21.00
2018-09-11T03:18:02.766Z,21.00
2018-09-11T03:20:31.934Z,21.00
2018-09-11T03:23:00.394Z,21.00
2018-09-11T03:25:28.651Z,21.00
2018-09-11T03:27:57.394Z,21.00
2018-09-11T03:30:25.621Z,21.00
2018-09-11T03:32:53.805Z,21.00
2018-09-11T03:35:22.124Z,21.00
2018-09-11T03:37:50.442Z,21.00
2018-09-11T03:40:18.730Z,21.00
2018-09-11T03:42:47.022Z,21.00
2018-09-11T03:45:15.729Z,21.00
2018-09-11T03:47:44.158Z,21.00
2018-09-11T03:50:12.523Z,21.00
2018-09-11T03:52:40.719Z,21.00
2018-09-11T03:55:09.055Z,21.00
2018-09-11T03:57:37.289Z,21.00
2018-09-11T04:00:05.833Z,21.00
2018-09-11T04:02:34.350Z,21.10
2018-09-11T04:05:02.749Z,21.10
2018-09-11T04:07:31.142Z,21.10
2018-09-11T04:09:59.459Z,21.10
2018-09-11T04:12:27.934Z,21.10
2018-09-11T04:14:56.146Z,21.10
2018-09-11T04:17:35.435Z,21.10
2018-09-11T04:20:03.924Z,21.10
2018-09-11T04:22:32.386Z,21.10
2018-09-11T04:25:01.192Z,21.10
2018-09-11T04:27:29.558Z,21.10
2018-09-11T04:29:57.928Z,21.10
2018-09-11T04:32:26.307Z,21.10
2018-09-11T04:34:54.758Z,21.10
2018-09-11T04:37:23.131Z,21.10
2018-09-11T04:39:51.524Z,21.10
2018-09-11T04:42:23.453Z,21.10
2018-09-11T04:44:51.753Z,21.10
2018-09-11T04:47:20.418Z,21.10
2018-09-11T04:49:48.845Z,21.00
2018-09-11T04:52:17.295Z,21.00
2018-09-11T04:54:45.669Z,21.00
2018-09-11T04:57:14.191Z,21.00
2018-09-11T04:59:42.509Z,21.00
2018-09-11T05:02:10.898Z,21.10
2018-09-11T05:04:39.538Z,21.00
2018-09-11T05:07:08.671Z,21.00
2018-09-11T05:09:37.603Z,21.10
2018-09-11T05:12:06.255Z,21.00
2018-09-11T05:14:34.875Z,21.10
2018-09-11T05:17:03.263Z,21.10
2018-09-11T05:19:31.878Z,21.10
2018-09-11T05:22:00.533Z,21.10
2018-09-11T05:24:28.825Z,21.10
2018-09-11T05:26:57.181Z,21.10
2018-09-11T05:29:25.685Z,21.10
2018-09-11T05:31:54.207Z,21.10
2018-09-11T05:34:22.561Z,21.10
2018-09-11T05:36:51.155Z,21.20
2018-09-11T05:39:20.069Z,21.20
2018-09-11T05:41:51.317Z,21.20
2018-09-11T05:44:24.933Z,21.20
2018-09-11T05:46:53.587Z,21.20
2018-09-11T05:49:21.955Z,21.20
2018-09-11T05:51:50.418Z,21.20
2018-09-11T05:54:18.925Z,21.20
2018-09-11T05:56:47.256Z,21.30
2018-09-11T05:59:15.791Z,21.30
2018-09-11T06:01:44.151Z,21.30
2018-09-11T06:04:12.546Z,21.30
2018-09-11T06:06:40.936Z,21.40
2018-09-11T06:09:11.307Z,21.40
2018-09-11T06:11:39.784Z,21.40
2018-09-11T06:14:09.549Z,21.50
2018-09-11T06:16:37.901Z,21.50
2018-09-11T06:19:07.237Z,21.50
2018-09-11T06:21:35.874Z,21.50
2018-09-11T06:24:04.235Z,21.50
2018-09-11T06:26:32.545Z,21.60
2018-09-11T06:29:01.208Z,21.60
2018-09-11T06:31:29.603Z,21.60
2018-09-11T06:33:58.120Z,21.70
2018-09-11T06:36:26.706Z,21.70
2018-09-11T06:38:55.702Z,21.70
2018-09-11T06:41:24.245Z,21.70
2018-09-11T06:43:53.539Z,21.80
2018-09-11T06:46:22.097Z,21.80
2018-09-11T06:48:50.580Z,21.80
2018-09-11T06:51:19.126Z,21.80
2018-09-11T06:53:47.846Z,21.80
2018-09-11T06:56:17.239Z,21.90
2018-09-11T06:58:45.785Z,21.90
2018-09-11T07:01:14.435Z,21.90
2018-09-11T07:03:42.705Z,22.00
2018-09-11T07:06:11.067Z,22.00
2018-09-11T07:08:39.415Z,22.00
2018-09-11T07:11:08.062Z,22.10
2018-09-11T07:13:36.321Z,22.10
2018-09-11T07:16:04.631Z,22.10
2018-09-11T07:18:33.167Z,22.10
2018-09-11T07:21:01.556Z,22.00
2018-09-11T07:23:30.360Z,22.00
2018-09-11T07:25:58.956Z,22.00
2018-09-11T07:28:27.212Z,21.90
2018-09-11T07:30:55.758Z,21.90
2018-09-11T07:33:24.122Z,22.00
2018-09-11T07:35:52.559Z,22.00
2018-09-11T07:38:20.989Z,22.10
2018-09-11T07:40:49.676Z,22.10
2018-09-11T07:43:18.317Z,22.10
2018-09-11T07:45:46.810Z,22.20
2018-09-11T07:48:15.576Z,22.20
2018-09-11T07:50:43.894Z,22.20
2018-09-11T07:53:12.316Z,22.30
2018-09-11T07:55:40.703Z,22.30
2018-09-11T07:58:09.201Z,22.30
2018-09-11T08:00:37.706Z,22.40
2018-09-11T08:03:06.019Z,22.30
2018-09-11T08:05:34.339Z,22.10
2018-09-11T08:08:03.009Z,22.20
2018-09-11T08:10:31.637Z,22.20
2018-09-11T08:13:00.136Z,22.20
2018-09-11T08:15:30.334Z,22.20
2018-09-11T08:17:58.698Z,22.20
2018-09-11T08:20:27.248Z,22.20
2018-09-11T08:22:56.081Z,22.20
2018-09-11T08:25:24.458Z,22.30
2018-09-11T08:27:53.242Z,22.30
2018-09-11T08:30:21.770Z,22.40
2018-09-11T08:32:50.245Z,22.50
2018-09-11T08:35:18.788Z,22.50
2018-09-11T08:37:47.576Z,22.60
2018-09-11T08:40:16.056Z,22.70
2018-09-11T08:42:49.372Z,22.70
2018-09-11T08:45:18.476Z,22.80
2018-09-11T08:47:47.341Z,22.80
2018-09-11T08:50:15.815Z,22.80
2018-09-11T08:52:44.221Z,22.80
2018-09-11T08:55:12.727Z,22.80
2018-09-11T08:57:41.254Z,22.80
2018-09-11T09:00:10.243Z,22.90
2018-09-11T09:02:38.658Z,22.90
2018-09-11T09:05:07.011Z,22.90
2018-09-11T09:07:35.328Z,22.80
2018-09-11T09:10:04.044Z,22.90
2018-09-11T09:12:32.350Z,22.80
2018-09-11T09:15:00.613Z,22.90
2018-09-11T09:17:28.845Z,22.90
2018-09-11T09:19:58.518Z,23.00
2018-09-11T09:22:26.946Z,23.10
2018-09-11T09:24:55.415Z,23.10
2018-09-11T09:27:23.828Z,23.30
2018-09-11T09:29:52.182Z,23.30
2018-09-11T09:32:20.825Z,23.40
2018-09-11T09:34:49.283Z,23.40
2018-09-11T09:37:17.626Z,23.50
2018-09-11T09:39:45.935Z,23.50
2018-09-11T09:42:14.422Z,23.50
2018-09-11T09:44:42.774Z,23.50
2018-09-11T09:47:11.235Z,23.60
2018-09-11T09:49:39.689Z,23.60
2018-09-11T09:52:08.053Z,23.60
2018-09-11T09:54:36.427Z,23.70
2018-09-11T09:57:05.365Z,23.70
2018-09-11T09:59:33.952Z,23.70
2018-09-11T10:02:08.631Z,23.70
2018-09-11T10:04:37.018Z,23.60
2018-09-11T10:07:05.463Z,23.50
2018-09-11T10:09:34.184Z,23.40
2018-09-11T10:12:02.613Z,23.40
2018-09-11T10:14:31.473Z,23.40
2018-09-11T10:16:59.826Z,23.40
2018-09-11T10:19:28.260Z,23.40
2018-09-11T10:21:56.921Z,23.40
2018-09-11T10:24:25.341Z,23.40
2018-09-11T10:26:53.848Z,23.40
2018-09-11T10:29:22.171Z,23.40
2018-09-11T10:31:50.616Z,23.40
2018-09-11T10:34:19.063Z,23.50
2018-09-11T10:36:51.380Z,23.50
2018-09-11T10:39:19.787Z,23.50
2018-09-11T10:41:48.102Z,23.60
2018-09-11T10:44:16.413Z,23.60
2018-09-11T10:46:44.697Z,23.70
2018-09-11T10:49:12.949Z,23.60
2018-09-11T10:51:41.292Z,23.70
2018-09-11T10:54:09.946Z,23.80
2018-09-11T10:56:38.504Z,23.80
2018-09-11T10:59:07.725Z,23.90
2018-09-11T11:01:37.011Z,24.00
2018-09-11T11:04:05.296Z,24.10
2018-09-11T11:06:34.360Z,24.20
2018-09-11T11:09:02.726Z,24.20
2018-09-11T11:11:32.052Z,24.30
2018-09-11T11:14:00.535Z,24.30
2018-09-11T11:16:29.086Z,24.30
2018-09-11T11:18:57.612Z,24.30
2018-09-11T11:21:26.367Z,24.30
2018-09-11T11:23:55.274Z,24.30
2018-09-11T11:26:23.953Z,24.40
2018-09-11T11:28:52.349Z,24.40
2018-09-11T11:31:20.842Z,24.50
2018-09-11T11:33:49.238Z,24.60
2018-09-11T11:36:17.833Z,24.70
2018-09-11T11:38:46.077Z,24.70
2018-09-11T11:41:14.451Z,24.80
2018-09-11T11:43:43.537Z,24.80
2018-09-11T11:46:11.867Z,24.80
2018-09-11T11:48:40.300Z,24.90
2018-09-11T11:51:08.620Z,24.90
2018-09-11T11:53:38.091Z,24.90
2018-09-11T11:56:07.120Z,24.90
2018-09-11T11:58:35.662Z,25.00
2018-09-11T12:01:04.137Z,25.00
2018-09-11T12:03:32.723Z,25.00
2018-09-11T12:06:01.934Z,25.00
2018-09-11T12:08:30.927Z,25.00
2018-09-11T12:10:59.412Z,25.00
2018-09-11T12:13:27.789Z,25.10
2018-09-11T12:15:56.496Z,25.00
2018-09-11T12:18:24.872Z,25.00
2018-09-11T12:20:53.355Z,24.90
2018-09-11T12:23:21.791Z,24.80
2018-09-11T12:25:59.219Z,24.80
2018-09-11T12:28:27.592Z,24.80
2018-09-11T12:30:56.408Z,24.70
2018-09-11T12:33:25.049Z,24.70
2018-09-11T12:35:53.589Z,24.60
2018-09-11T12:38:22.560Z,24.70
2018-09-11T12:40:51.035Z,24.70
2018-09-11T12:43:19.396Z,24.70
2018-09-11T12:45:47.815Z,24.80
2018-09-11T12:48:16.760Z,24.80
2018-09-11T12:50:44.852Z,24.80
2018-09-11T12:53:13.538Z,24.80
2018-09-11T12:55:42.006Z,24.80
2018-09-11T12:58:10.591Z,24.90
2018-09-11T13:00:38.928Z,24.90
2018-09-11T13:03:07.272Z,24.90
2018-09-11T13:05:36.503Z,24.90
2018-09-11T13:08:11.326Z,24.90
2018-09-11T13:10:39.583Z,24.80
2018-09-11T13:13:08.069Z,24.80
2018-09-11T13:15:36.480Z,24.80
2018-09-11T13:18:05.312Z,24.80
2018-09-11T13:20:33.585Z,24.80
2018-09-11T13:23:01.871Z,24.80
2018-09-11T13:25:30.236Z,24.80
2018-09-11T13:27:58.680Z,24.80
2018-09-11T13:30:27.024Z,24.80
2018-09-11T13:32:55.789Z,24.70
2018-09-11T13:35:24.154Z,24.80
2018-09-11T13:37:52.837Z,24.80
2018-09-11T13:40:21.086Z,24.80
2018-09-11T13:42:49.369Z,24.80
2018-09-11T13:45:17.740Z,24.80
2018-09-11T13:47:46.280Z,24.90
2018-09-11T13:50:15.555Z,24.90
2018-09-11T13:52:44.036Z,25.00
2018-09-11T13:55:12.457Z,25.00
2018-09-11T13:57:40.899Z,25.00
2018-09-11T14:00:09.316Z,25.00
2018-09-11T14:02:38.244Z,25.00
2018-09-11T14:05:06.697Z,25.00
2018-09-11T14:07:35.030Z,25.00
2018-09-11T14:10:03.623Z,25.10
2018-09-11T14:12:32.517Z,25.10
2018-09-11T14:15:00.777Z,25.10
2018-09-11T14:17:29.104Z,25.20
2018-09-11T14:19:57.650Z,25.20
2018-09-11T14:22:26.036Z,25.20
2018-09-11T14:24:54.463Z,25.20
2018-09-11T14:27:23.430Z,25.30
2018-09-11T14:29:51.783Z,25.30
2018-09-11T14:32:20.394Z,25.40
2018-09-11T14:34:55.605Z,25.30
2018-09-11T14:37:24.976Z,25.30
2018-09-11T14:39:53.377Z,25.30
2018-09-11T14:42:21.858Z,25.30
2018-09-11T14:44:50.768Z,25.40
2018-09-11T14:47:19.170Z,25.50
2018-09-11T14:49:47.842Z,25.50
2018-09-11T14:52:17.129Z,25.60
2018-09-11T14:54:45.597Z,25.60
2018-09-11T14:57:14.154Z,25.60
2018-09-11T14:59:42.771Z,25.60
2018-09-11T15:02:11.195Z,25.60
2018-09-11T15:04:40.393Z,25.70
2018-09-11T15:07:09.259Z,25.70
2018-09-11T15:09:37.758Z,25.70
2018-09-11T15:12:06.363Z,25.60
2018-09-11T15:14:34.835Z,25.60
2018-09-11T15:17:03.095Z,25.50
2018-09-11T15:19:32.167Z,25.50
2018-09-11T15:22:00.511Z,25.50
2018-09-11T15:24:29.011Z,25.40
2018-09-11T15:26:57.365Z,25.40
2018-09-11T15:29:25.783Z,25.40
2018-09-11T15:31:54.201Z,25.40
2018-09-11T15:34:22.671Z,25.40
2018-09-11T15:36:51.574Z,25.40
2018-09-11T15:39:20.165Z,25.40
2018-09-11T15:41:48.665Z,25.50
2018-09-11T15:44:17.289Z,25.50
2018-09-11T15:46:46.433Z,25.60
2018-09-11T15:49:15.610Z,25.60
2018-09-11T15:51:44.066Z,25.60
2018-09-11T15:54:12.479Z,25.50
2018-09-11T15:56:41.362Z,25.50
2018-09-11T15:59:11.281Z,25.50
2018-09-11T16:01:39.894Z,25.60
2018-09-11T16:04:08.335Z,25.60
2018-09-11T16:06:36.843Z,25.70
2018-09-11T16:09:08.271Z,25.80
2018-09-11T16:11:36.644Z,25.80
2018-09-11T16:14:05.164Z,25.80
2018-09-11T16:16:35.279Z,25.80
2018-09-11T16:19:03.681Z,25.80
2018-09-11T16:21:32.355Z,25.90
2018-09-11T16:24:01.459Z,25.80
2018-09-11T16:26:30.311Z,25.80
2018-09-11T16:28:59.497Z,25.80
2018-09-11T16:31:28.192Z,25.70
2018-09-11T16:33:56.862Z,25.70
2018-09-11T16:36:25.258Z,25.60
2018-09-11T16:38:53.759Z,25.60
2018-09-11T16:41:22.918Z,25.60
2018-09-11T16:43:52.136Z,25.50
2018-09-11T16:46:21.158Z,25.50
2018-09-11T16:48:49.654Z,25.40
2018-09-11T16:51:18.097Z,25.40
2018-09-11T16:53:46.773Z,25.30
2018-09-11T16:56:15.172Z,25.30
2018-09-11T16:58:43.596Z,25.30
2018-09-11T17:01:12.335Z,25.20
2018-09-11T17:03:40.645Z,25.20
2018-09-11T17:06:09.002Z,25.10
2018-09-11T17:08:37.669Z,25.10
2018-09-11T17:11:06.550Z,25.00
2018-09-11T17:13:35.760Z,25.00
2018-09-11T17:16:04.358Z,24.90
2018-09-11T17:18:39.488Z,24.90
2018-09-11T17:21:12.585Z,24.90
2018-09-11T17:23:50.212Z,24.80
2018-09-11T17:26:18.750Z,24.80
2018-09-11T17:28:47.165Z,24.70
2018-09-11T17:31:15.683Z,24.70
2018-09-11T17:33:44.106Z,24.70
2018-09-11T17:36:12.585Z,24.60
2018-09-11T17:38:41.343Z,24.60
2018-09-11T17:41:09.917Z,24.60
2018-09-11T17:43:38.506Z,24.50
2018-09-11T17:46:07.096Z,24.50
2018-09-11T17:48:35.481Z,24.50
2018-09-11T17:51:04.027Z,24.50
2018-09-11T17:53:32.458Z,24.40
2018-09-11T17:56:01.610Z,24.40
2018-09-11T17:58:30.081Z,24.40
2018-09-11T18:00:58.969Z,24.40
2018-09-11T18:03:27.898Z,24.30
2018-09-11T18:05:57.037Z,24.30
2018-09-11T18:08:26.167Z,24.30
2018-09-11T18:10:55.292Z,24.30
2018-09-11T18:13:24.532Z,24.20
2018-09-11T18:15:53.082Z,24.20
2018-09-11T18:18:21.815Z,24.20
2018-09-11T18:20:50.306Z,24.10
2018-09-11T18:23:18.721Z,24.10
2018-09-11T18:25:47.189Z,24.10
2018-09-11T18:28:15.675Z,24.00
2018-09-11T18:30:45.423Z,24.00
2018-09-11T18:33:13.889Z,24.00
2018-09-11T18:35:42.351Z,24.00
2018-09-11T18:38:10.975Z,24.10
2018-09-11T18:40:40.859Z,24.00
2018-09-11T18:43:09.520Z,24.00
2018-09-11T18:45:37.923Z,23.90
2018-09-11T18:48:07.061Z,23.90
2018-09-11T18:50:35.600Z,23.90
2018-09-11T18:53:04.269Z,23.80
2018-09-11T18:55:33.206Z,23.80
2018-09-11T18:58:02.045Z,23.80
2018-09-11T19:00:31.739Z,23.80
2018-09-11T19:03:02.244Z,23.80
2018-09-11T19:05:33.271Z,23.80
2018-09-11T19:08:09.116Z,23.80
2018-09-11T19:10:37.655Z,23.80
2018-09-11T19:13:06.487Z,23.70
2018-09-11T19:15:35.257Z,23.70
2018-09-11T19:18:03.769Z,23.80
2018-09-11T19:20:32.337Z,23.70
2018-09-11T19:23:00.836Z,23.70
2018-09-11T19:25:31.667Z,23.80
2018-09-11T19:28:00.316Z,23.70
2018-09-11T19:30:29.092Z,23.70
2018-09-11T19:32:57.678Z,23.70
2018-09-11T19:35:26.460Z,23.80
2018-09-11T19:37:54.898Z,23.80
2018-09-11T19:40:23.483Z,23.90
2018-09-11T19:42:53.519Z,23.90
2018-09-11T19:45:22.170Z,23.90
2018-09-11T19:47:50.654Z,23.90
2018-09-11T19:50:19.173Z,23.90
2018-09-11T19:52:48.288Z,23.90
2018-09-11T19:55:16.722Z,23.90
2018-09-11T19:57:45.359Z,23.90
2018-09-11T20:00:14.588Z,23.90
2018-09-11T20:02:43.339Z,23.90
2018-09-11T20:05:12.029Z,23.90
2018-09-11T20:07:41.993Z,23.90
2018-09-11T20:10:10.464Z,23.90
2018-09-11T20:12:39.042Z,23.90
2018-09-11T20:15:08.777Z,23.90
2018-09-11T20:17:37.825Z,23.90
2018-09-11T20:20:08.395Z,23.80
2018-09-11T20:22:36.990Z,23.80
2018-09-11T20:25:05.732Z,23.80
2018-09-11T20:27:34.334Z,23.80
2018-09-11T20:30:03.186Z,23.80
2018-09-11T20:32:32.215Z,23.80
2018-09-11T20:35:01.328Z,23.80
2018-09-11T20:37:29.901Z,23.80
2018-09-11T20:39:58.414Z,23.80
2018-09-11T20:42:26.896Z,23.80
2018-09-11T20:44:55.558Z,23.80
2018-09-11T20:47:23.981Z,23.80
2018-09-11T20:49:52.493Z,23.80
2018-09-11T20:52:20.895Z,23.70
2018-09-11T20:54:49.300Z,23.70
2018-09-11T20:57:17.857Z,23.70
2018-09-11T20:59:46.706Z,23.60
2018-09-11T21:02:15.585Z,23.70
2018-09-11T21:04:44.714Z,23.60
2018-09-11T21:07:13.863Z,23.70
2018-09-11T21:09:42.312Z,23.60
2018-09-11T21:12:10.820Z,23.70
2018-09-11T21:14:39.287Z,23.60
2018-09-11T21:17:08.765Z,23.60
2018-09-11T21:19:44.700Z,23.60
2018-09-11T21:22:13.187Z,23.60
2018-09-11T21:24:41.813Z,23.50
2018-09-11T21:27:10.841Z,23.60
2018-09-11T21:29:39.434Z,23.50
2018-09-11T21:32:08.162Z,23.50
2018-09-11T21:34:36.760Z,23.50
2018-09-11T21:37:06.687Z,23.50
2018-09-11T21:39:35.387Z,23.50
2018-09-11T21:42:03.935Z,23.50
2018-09-11T21:44:32.491Z,23.40
2018-09-11T21:47:01.068Z,23.40
2018-09-11T21:49:29.550Z,23.40
2018-09-11T21:51:58.175Z,23.40
2018-09-11T21:54:26.912Z,23.40
2018-09-11T21:56:55.453Z,23.30
2018-09-11T21:59:24.810Z,23.40
2018-09-11T22:01:54.366Z,23.40
2018-09-11T22:04:24.446Z,23.30
2018-09-11T22:06:54.555Z,23.30
2018-09-11T22:09:23.243Z,23.30
2018-09-11T22:11:52.266Z,23.30
2018-09-11T22:14:22.549Z,23.30
2018-09-11T22:16:52.161Z,23.20
2018-09-11T22:19:21.248Z,23.20
2018-09-11T22:21:50.709Z,23.20
2018-09-11T22:24:20.496Z,23.10
2018-09-11T22:26:49.281Z,23.10
2018-09-11T22:29:18.702Z,23.10
2018-09-11T22:31:47.723Z,23.10
2018-09-11T22:34:18.775Z,23.10
2018-09-11T22:36:49.025Z,23.10
2018-09-11T22:39:17.388Z,23.10
2018-09-11T22:41:52.130Z,23.00
2018-09-11T22:44:20.506Z,23.00
2018-09-11T22:46:48.868Z,23.00
2018-09-11T22:49:17.552Z,23.00
2018-09-11T22:51:45.871Z,23.00
2018-09-11T22:54:14.156Z,23.00
2018-09-11T22:56:42.371Z,23.00
2018-09-11T22:59:10.757Z,23.00
2018-09-11T23:01:39.051Z,23.00
2018-09-11T23:04:07.428Z,23.00
2018-09-11T23:06:35.704Z,22.90
2018-09-11T23:09:05.141Z,22.90
2018-09-11T23:11:33.429Z,22.90
2018-09-11T23:14:02.028Z,22.90
2018-09-11T23:16:30.432Z,22.90
2018-09-11T23:18:58.809Z,22.80
2018-09-11T23:21:27.194Z,22.80
2018-09-11T23:23:55.446Z,22.80
2018-09-11T23:26:24.146Z,22.80
2018-09-11T23:28:52.479Z,22.80
2018-09-11T23:31:20.833Z,22.80
2018-09-11T23:33:50.124Z,22.80
2018-09-11T23:36:18.466Z,22.80
2018-09-11T23:38:46.681Z,22.80
2018-09-11T23:41:14.955Z,22.80
2018-09-11T23:43:43.225Z,22.80
2018-09-11T23:46:11.491Z,22.80
2018-09-11T23:48:39.766Z,22.80
2018-09-11T23:51:07.998Z,22.80
2018-09-11T23:53:36.213Z,22.80
2018-09-11T23:56:04.471Z,22.80
2018-09-11T23:58:32.721Z,22.80
